地図

経路データ

SID SEASON NUMBER BASIN SUBBASIN NAME ISO_TIME NATURE LAT LON WMO_WIND WMO_PRES WMO_AGENCY TRACK_TYPE DIST2LAND LANDFALL IFLAG USA_AGENCY USA_ATCF_ID USA_LAT USA_LON USA_RECORD USA_STATUS USA_WIND USA_PRES USA_SSHS USA_R34_NE USA_R34_SE USA_R34_SW USA_R34_NW USA_R50_NE USA_R50_SE USA_R50_SW USA_R50_NW USA_R64_NE USA_R64_SE USA_R64_SW USA_R64_NW USA_POCI USA_ROCI USA_RMW USA_EYE TOKYO_LAT TOKYO_LON TOKYO_GRADE TOKYO_WIND TOKYO_PRES TOKYO_R50_DIR TOKYO_R50_LONG TOKYO_R50_SHORT TOKYO_R30_DIR TOKYO_R30_LONG TOKYO_R30_SHORT TOKYO_LAND CMA_LAT CMA_LON CMA_CAT CMA_WIND CMA_PRES HKO_LAT HKO_LON HKO_CAT HKO_WIND HKO_PRES NEWDELHI_LAT NEWDELHI_LON NEWDELHI_GRADE NEWDELHI_WIND NEWDELHI_PRES NEWDELHI_CI NEWDELHI_DP NEWDELHI_POCI REUNION_LAT REUNION_LON REUNION_TYPE REUNION_WIND REUNION_PRES REUNION_TNUM REUNION_CI REUNION_RMW REUNION_R34_NE REUNION_R34_SE REUNION_R34_SW REUNION_R34_NW REUNION_R50_NE REUNION_R50_SE REUNION_R50_SW REUNION_R50_NW REUNION_R64_NE REUNION_R64_SE REUNION_R64_SW REUNION_R64_NW BOM_LAT BOM_LON BOM_TYPE BOM_WIND BOM_PRES BOM_TNUM BOM_CI BOM_RMW BOM_R34_NE BOM_R34_SE BOM_R34_SW BOM_R34_NW BOM_R50_NE BOM_R50_SE BOM_R50_SW BOM_R50_NW BOM_R64_NE BOM_R64_SE BOM_R64_SW BOM_R64_NW BOM_ROCI BOM_POCI BOM_EYE BOM_POS_METHOD BOM_PRES_METHOD NADI_LAT NADI_LON NADI_CAT NADI_WIND NADI_PRES WELLINGTON_LAT WELLINGTON_LON WELLINGTON_WIND WELLINGTON_PRES DS824_LAT DS824_LON DS824_STAGE DS824_WIND DS824_PRES TD9636_LAT TD9636_LON TD9636_STAGE TD9636_WIND TD9636_PRES TD9635_LAT TD9635_LON TD9635_WIND TD9635_PRES TD9635_ROCI NEUMANN_LAT NEUMANN_LON NEUMANN_CLASS NEUMANN_WIND NEUMANN_PRES MLC_LAT MLC_LON MLC_CLASS MLC_WIND MLC_PRES USA_GUST BOM_GUST BOM_GUST_PER REUNION_GUST REUNION_GUST_PER USA_SEAHGT USA_SEARAD_NE USA_SEARAD_SE USA_SEARAD_SW USA_SEARAD_NW STORM_SPEED STORM_DIR
1955040S14067 1955 10 SI MM NOT_NAMED 1955-02-08 18:00:00 TS -14.0000 67.3000 main 1227 1220 O________OO___ jtwc_sh SH131955 -14.0000 67.3000 -1 -14.0000 67.3000 TC -14.0000 67.3000 7 6 150
1955040S14067 1955 10 SI MM NOT_NAMED 1955-02-08 21:00:00 TS -14.2570 67.4539 main 1226 1220 P________PP___ SH131955 -14.2550 67.4474 -1 -14.2550 67.4474 TC -14.2611 67.4668 7 6 149
1955040S14067 1955 10 SI MM NOT_NAMED 1955-02-09 00:00:00 TS -14.5025 67.6090 main 1223 1217 O________OP___ jtwc_sh SH131955 -14.5000 67.6000 -1 -14.5000 67.6000 TC -14.5076 67.6270 7 6 147
1955040S14067 1955 10 SI MM NOT_NAMED 1955-02-09 03:00:00 TS -14.7235 67.7629 main 1229 1224 P________PP___ SH131955 -14.7225 67.7575 -1 -14.7225 67.7575 TC -14.7254 67.7738 7 5 145
1955040S14067 1955 10 SI MM NOT_NAMED 1955-02-09 06:00:00 TS -14.9000 67.9000 main 1227 1222 O________OO___ jtwc_sh SH131955 -14.9000 67.9000 -1 -14.9000 67.9000 TC 25 -14.9000 67.9000 1 4 141
1955040S14067 1955 10 SI MM NOT_NAMED 1955-02-09 09:00:00 TS -15.0179 68.0103 main 1231 1226 P________PP___ SH131955 -15.0150 68.0150 -1 -15.0150 68.0150 TC 25 -15.0237 68.0008 1 3 138
1955040S14067 1955 10 SI MM NOT_NAMED 1955-02-09 12:00:00 TS -15.1050 68.0934 main 1235 1230 O________OP___ jtwc_sh SH131955 -15.1000 68.1000 -1 -15.1000 68.1000 TC 25 -15.1149 68.0802 1 2 141
1955040S14067 1955 10 SI MM NOT_NAMED 1955-02-09 15:00:00 TS -15.1896 68.1532 main 1240 1234 P________PP___ SH131955 -15.1850 68.1575 -1 -15.1850 68.1575 TC 30 -15.1987 68.1445 1 2 152
1955040S14067 1955 10 SI MM NOT_NAMED 1955-02-09 18:00:00 TS -15.3000 68.2000 main 1234 1224 O________OO___ jtwc_sh SH131955 -15.3000 68.2000 -1 -15.3000 68.2000 TC 35 -15.3000 68.2000 2 3 161
1955040S14067 1955 10 SI MM NOT_NAMED 1955-02-09 21:00:00 TS -15.4822 68.2551 main 1233 1223 P________PP___ SH131955 -15.4925 68.2500 -1 -15.4925 68.2500 TC 35 -15.4616 68.2653 2 4 164
1955040S14067 1955 10 SI MM NOT_NAMED 1955-02-10 00:00:00 TS -15.6808 68.3075 main 1223 1218 O________OP___ jtwc_sh SH131955 -15.7000 68.3000 -1 -15.7000 68.3000 TC 35 -15.6425 68.3224 2 4 164
1955040S14067 1955 10 SI MM NOT_NAMED 1955-02-10 03:00:00 TS -15.8524 68.3611 main 1223 1218 P________PP___ SH131955 -15.8650 68.3575 -1 -15.8650 68.3575 TC 35 -15.8272 68.3684 2 3 165
1955040S14067 1955 10 SI MM NOT_NAMED 1955-02-10 06:00:00 TS -16.0000 68.4000 main 1218 1213 O________OO___ jtwc_sh SH131955 -16.0000 68.4000 -1 -16.0000 68.4000 TC 35 -16.0000 68.4000 2 3 166
1955040S14067 1955 10 SI MM NOT_NAMED 1955-02-10 09:00:00 TS -16.1104 68.4125 main 1213 1209 P________PP___ SH131955 -16.1000 68.4075 -1 -16.1000 68.4075 TC 35 -16.1312 68.4225 2 2 179
1955040S14067 1955 10 SI MM NOT_NAMED 1955-02-10 12:00:00 TS -16.2167 68.4100 main 1209 1204 O________OP___ jtwc_sh SH131955 -16.2000 68.4000 -1 -16.2000 68.4000 TC 35 -16.2500 68.4300 2 2 187
1955040S14067 1955 10 SI MM NOT_NAMED 1955-02-10 15:00:00 TS -16.3462 68.4075 main 1204 1196 P________PP___ SH131955 -16.3350 68.4000 -1 -16.3350 68.4000 TC 35 -16.3687 68.4225 2 3 0
1955040S14067 1955 10 SI MM NOT_NAMED 1955-02-10 18:00:00 TS -16.5000 68.4000 main 1196 1187 O________OO___ jtwc_sh SH131955 -16.5000 68.4000 -1 -16.5000 68.4000 TC 35 -16.5000 68.4000 2 3 184
1955040S14067 1955 10 SI MM NOT_NAMED 1955-02-10 21:00:00 TS -16.6882 68.4022 main 1187 1179 P________PP___ SH131955 -16.7000 68.4150 -1 -16.7000 68.4150 TC 35 -16.6647 68.3765 2 4 184
1955040S14067 1955 10 SI MM NOT_NAMED 1955-02-11 00:00:00 TS -16.8808 68.3792 main 1179 1165 O________OP___ jtwc_sh SH131955 -16.9000 68.4000 -1 -16.9000 68.4000 TC 35 -16.8425 68.3374 2 4 195
1955040S14067 1955 10 SI MM NOT_NAMED 1955-02-11 03:00:00 TS -17.0463 68.3032 main 1165 1148 P________PP___ SH131955 -17.0575 68.3150 -1 -17.0575 68.3150 TC 35 -17.0240 68.2796 2 4 208
1955040S14067 1955 10 SI MM NOT_NAMED 1955-02-11 06:00:00 TS -17.2000 68.2000 main 1148 1134 O________OO___ jtwc_sh SH131955 -17.2000 68.2000 -1 -17.2000 68.2000 TC 35 -17.2000 68.2000 2 4 212
1955040S14067 1955 10 SI MM NOT_NAMED 1955-02-11 09:00:00 TS -17.3524 68.1038 main 1131 1117 P________PP___ SH131955 -17.3500 68.1075 -1 -17.3500 68.1075 TC 35 -17.3572 68.0966 2 4 213
1955040S14067 1955 10 SI MM NOT_NAMED 1955-02-11 12:00:00 TS -17.5025 67.9908 main 1117 1104 O________OP___ jtwc_sh SH131955 -17.5000 68.0000 -1 -17.5000 68.0000 TC 35 -17.5075 67.9725 2 4 220
1955040S14067 1955 10 SI MM NOT_NAMED 1955-02-11 15:00:00 TS -17.6514 67.8457 main 1090 1077 P________PP___ SH131955 -17.6500 67.8500 -1 -17.6500 67.8500 TC 35 -17.6541 67.8372 2 4 223
1955040S14067 1955 10 SI MM NOT_NAMED 1955-02-11 18:00:00 TS -17.8000 67.7000 main 1077 1063 O________OO___ jtwc_sh SH131955 -17.8000 67.7000 -1 -17.8000 67.7000 TC 35 -17.8000 67.7000 2 4 219
1955040S14067 1955 10 SI MM NOT_NAMED 1955-02-11 21:00:00 TS -17.9513 67.5889 main 1060 1047 P________PP___ SH131955 -17.9500 67.5999 -1 -17.9500 67.5999 TC 35 -17.9541 67.5669 2 4 214
1955040S14067 1955 10 SI MM NOT_NAMED 1955-02-12 00:00:00 TS -18.1025 67.4783 main 1047 1024 O________OP___ jtwc_sh SH131955 -18.1000 67.5000 -1 -18.1000 67.5000 TC 35 -18.1075 67.4350 2 4 219
1955040S14067 1955 10 SI MM NOT_NAMED 1955-02-12 03:00:00 TS -18.2524 67.3369 main 1021 1008 P________PP___ SH131955 -18.2500 67.3500 -1 -18.2500 67.3500 TC 35 -18.2572 67.3106 2 4 222
1955040S14067 1955 10 SI MM NOT_NAMED 1955-02-12 06:00:00 TS -18.4000 67.2000 main 1008 995 O________OO___ jtwc_sh SH131955 -18.4000 67.2000 -1 -18.4000 67.2000 TC 35 -18.4000 67.2000 2 4 218
1955040S14067 1955 10 SI MM NOT_NAMED 1955-02-12 09:00:00 TS -18.5504 67.0948 main 993 980 P________PP___ SH131955 -18.5575 67.0850 -1 -18.5575 67.0850 TC 35 -18.5362 67.1146 2 3 211
1955040S14067 1955 10 SI MM NOT_NAMED 1955-02-12 12:00:00 TS -18.6883 67.0141 main 980 978 O________OP___ jtwc_sh SH131955 -18.7000 67.0000 -1 -18.7000 67.0000 TC 35 -18.6649 67.0424 2 3 208
1955040S14067 1955 10 SI MM NOT_NAMED 1955-02-12 15:00:00 TS -18.8004 66.9580 main 978 965 P________PP___ SH131955 -18.8075 66.9500 -1 -18.8075 66.9500 TC 35 -18.7862 66.9740 2 2 207
1955040S14067 1955 10 SI MM NOT_NAMED 1955-02-12 18:00:00 TS -18.9000 66.9000 main 965 953 O________OO___ jtwc_sh SH131955 -18.9000 66.9000 -1 -18.9000 66.9000 TC 35 -18.9000 66.9000 2 2 216
1955040S14067 1955 10 SI MM NOT_NAMED 1955-02-12 21:00:00 TS -19.0010 66.8060 main 953 941 P________PP___ SH131955 -19.0000 66.8075 -1 -19.0000 66.8075 TC 35 -19.0031 66.8031 2 3 224
1955040S14067 1955 10 SI MM NOT_NAMED 1955-02-13 00:00:00 TS -19.1000 66.7000 main 941 928 O________OP___ jtwc_sh SH131955 -19.1000 66.7000 -1 -19.1000 66.7000 TC 35 -19.1000 66.7000 2 3 224
1955040S14067 1955 10 SI MM NOT_NAMED 1955-02-13 03:00:00 TS -19.1990 66.5989 main 928 916 P________PP___ SH131955 -19.2000 66.6000 -1 -19.2000 66.6000 TC 35 -19.1969 66.5968 2 3 224
1955040S14067 1955 10 SI MM NOT_NAMED 1955-02-13 06:00:00 TS -19.3000 66.5000 main 916 904 O________OO___ jtwc_sh SH131955 -19.3000 66.5000 -1 -19.3000 66.5000 TC 35 -19.3000 66.5000 2 3 223
1955040S14067 1955 10 SI MM NOT_NAMED 1955-02-13 09:00:00 TS -19.4023 66.3996 main 904 893 P________PP___ SH131955 -19.3925 66.3925 -1 -19.3925 66.3925 TC 35 -19.4219 66.4137 2 3 219
1955040S14067 1955 10 SI MM NOT_NAMED 1955-02-13 12:00:00 TS -19.5167 66.3117 main 893 890 O________OP___ jtwc_sh SH131955 -19.5000 66.3000 -1 -19.5000 66.3000 TC 35 -19.5500 66.3350 2 3 209
1955040S14067 1955 10 SI MM NOT_NAMED 1955-02-13 15:00:00 TS -19.6644 66.2496 main 880 879 P________PP___ SH131955 -19.6575 66.2425 -1 -19.6575 66.2425 TC 35 -19.6781 66.2637 2 3 200
1955040S14067 1955 10 SI MM NOT_NAMED 1955-02-13 18:00:00 TS -19.8000 66.2000 main 879 878 O________OO___ jtwc_sh SH131955 -19.8000 66.2000 -1 -19.8000 66.2000 TC 35 -19.8000 66.2000 2 2 204
1955040S14067 1955 10 SI MM NOT_NAMED 1955-02-13 21:00:00 TS -19.8595 66.1556 main 878 867 P________PP___ SH131955 -19.8500 66.1500 -1 -19.8500 66.1500 TC 35 -19.8786 66.1668 2 1 214
1955040S14067 1955 10 SI MM NOT_NAMED 1955-02-14 00:00:00 TS -19.9183 66.1123 main 867 866 O________OP___ jtwc_sh SH131955 -19.9000 66.1000 -1 -19.9000 66.1000 TC 35 -19.9548 66.1369 2 2 202
1955040S14067 1955 10 SI MM NOT_NAMED 1955-02-14 03:00:00 TS -20.0312 66.0778 main 866 855 P________PP___ SH131955 -20.0200 66.0724 -1 -20.0200 66.0724 TC 35 -20.0536 66.0886 2 3 201
1955040S14067 1955 10 SI MM NOT_NAMED 1955-02-14 06:00:00 TS -20.2000 66.0000 main 855 833 O________OO___ jtwc_sh SH131955 -20.2000 66.0000 -1 -20.2000 66.0000 TC 35 -20.2000 66.0000 2 5 211
1955040S14067 1955 10 SI MM NOT_NAMED 1955-02-14 09:00:00 TS -20.4267 65.8242 main 833 813 P________PP___ SH131955 -20.4275 65.8225 -1 -20.4275 65.8225 TC 35 -20.4249 65.8274 2 6 216
1955040S14067 1955 10 SI MM NOT_NAMED 1955-02-14 12:00:00 TS -20.6993 65.6052 main 813 793 O________OP___ jtwc_sh SH131955 -20.7000 65.6000 -1 -20.7000 65.6000 TC 35 -20.6978 65.6157 2 7 215
1955040S14067 1955 10 SI MM NOT_NAMED 1955-02-14 15:00:00 TS -20.9989 65.3887 main 794 775 P________PP___ SH131955 -21.0000 65.3851 -1 -21.0000 65.3851 TC 35 -20.9968 65.3961 2 7 212
1955040S14067 1955 10 SI MM NOT_NAMED 1955-02-14 18:00:00 TS -21.3000 65.2000 main 777 768 O________OO___ jtwc_sh SH131955 -21.3000 65.2000 -1 -21.3000 65.2000 TC 35 -21.3000 65.2000 2 6 209
1955040S14067 1955 10 SI MM NOT_NAMED 1955-02-14 21:00:00 TS -21.5339 65.0774 main 769 761 P________PP___ SH131955 -21.5500 65.0848 -1 -21.5500 65.0848 TC 30 -21.5018 65.0626 2 5 203
1955040S14067 1955 10 SI MM NOT_NAMED 1955-02-15 00:00:00 TS -21.7717 64.9848 main 765 757 O________OP___ jtwc_sh SH131955 -21.8000 65.0000 -1 -21.8000 65.0000 TC 25 -21.7150 64.9543 2 5 200
1955040S14067 1955 10 SI MM NOT_NAMED 1955-02-15 03:00:00 TS -22.0252 64.8846 main 760 752 P________PP___ SH131955 -22.0400 64.8924 -1 -22.0400 64.8924 TC 25 -21.9956 64.8689 2 7 195
1955040S14067 1955 10 SI MM NOT_NAMED 1955-02-15 06:00:00 TS -22.4000 64.8000 main 761 761 O________OO___ jtwc_sh SH131955 -22.4000 64.8000 -1 -22.4000 64.8000 TC 25 -22.4000 64.8000 1 10 188
1955040S14067 1955 10 SI MM NOT_NAMED 1955-02-15 09:00:00 TS -22.9873 64.7284 main 774 774 P________PP___ SH131955 -22.9750 64.7424 -1 -22.9750 64.7424 TC 25 -23.0119 64.7004 1 13 185
1955040S14067 1955 10 SI MM NOT_NAMED 1955-02-15 12:00:00 TS -23.7150 64.6732 main 804 804 O________OP___ jtwc_sh SH131955 -23.7000 64.7000 -1 -23.7000 64.7000 TC 25 -23.7451 64.6196 1 15 184
1955040S14067 1955 10 SI MM NOT_NAMED 1955-02-15 15:00:00 TS -24.5102 64.6115 main 837 837 P________PP___ SH131955 -24.5000 64.6279 -1 -24.5000 64.6279 TC 25 -24.5307 64.5788 1 16 183
1955040S14067 1955 10 SI MM NOT_NAMED 1955-02-15 18:00:00 TS -25.3000 64.6000 main 886 886 O________OO___ jtwc_sh SH131955 -25.3000 64.6000 -1 -25.3000 64.6000 TC 25 -25.3000 64.6000 1 15 178
1955040S14067 1955 10 SI MM NOT_NAMED 1955-02-15 21:00:00 TS -25.9864 64.6696 main 942 942 P________PP___ SH131955 -25.9799 64.6551 -1 -25.9799 64.6551 TC 25 -25.9994 64.6986 1 13 171
1955040S14067 1955 10 SI MM NOT_NAMED 1955-02-16 00:00:00 TS -26.6117 64.8206 main 993 993 O________OP___ jtwc_sh SH131955 -26.6000 64.8000 -1 -26.6000 64.8000 TC 25 -26.6351 64.8617 1 13 165
1955040S14067 1955 10 SI MM NOT_NAMED 1955-02-16 03:00:00 TS -27.2112 65.0409 main 1053 1053 P________PP___ SH131955 -27.2027 65.0268 -1 -27.2027 65.0268 TC 25 -27.2283 65.0691 1 13 160
1955040S14067 1955 10 SI MM NOT_NAMED 1955-02-16 06:00:00 TS -27.8000 65.3000 main 1121 O________OO___ jtwc_sh SH131955 -27.8000 65.3000 -1 -27.8000 65.3000 TC 25 -27.8000 65.3000 1 13 159

IBTrACS Databaseについて

本データベースは、米国NOAAが公開する1842年以降の世界の熱帯低気圧のベストトラックデータアーカイブInternational Best Track Archive for Climate Stewardship (IBTrACS)を、ウェブで閲覧しやすい形式に変換したものです。

最終更新日:2021-12-01